Terminal Aerodrome Forecast
Issued by NWS

Home | Current Version | Previous Version | Text Only | Print | Product List | Glossary On
Versions: 1 2 3 4 5 6 7 8 9 10 11 12 13 14 15 16 17 18 19
000
FTUS45 KTFX 260500
TAFGTF
TAF
KGTF 260539Z 2606/2706 21010KT P6SM SCT100 BKN150
     FM260800 23010KT P6SM SCT050 BKN090
     FM261000 26010KT P6SM VCSH SCT020 OVC035
      TEMPO 2612/2616 33011KT 4SM -SN BR BKN015
     FM261800 31010KT P6SM SCT030 BKN050
     FM262200 21011KT P6SM SKC=

USA.gov is the U.S. government's official web portal to all federal, state and local government web resources and services.